sensor_id;sensor_type;location;lat;lon;timestamp;pressure;altitude;pressure_sealevel;temperature;humidity
51876;BME280;34054;52.100;5.116;2022-07-04T00:00:24;101858.03;;;17.07;70.52
51876;BME280;34054;52.100;5.116;2022-07-04T00:00:57;101853.41;;;17.08;70.67
51876;BME280;34054;52.100;5.116;2022-07-04T00:01:29;101854.75;;;17.10;70.96
51876;BME280;34054;52.100;5.116;2022-07-04T00:02:00;101855.56;;;16.90;70.92
51876;BME280;34054;52.100;5.116;2022-07-04T00:02:34;101849.00;;;16.66;71.86
51876;BME280;34054;52.100;5.116;2022-07-04T00:03:09;101852.81;;;16.49;72.62
51876;BME280;34054;52.100;5.116;2022-07-04T00:03:41;101855.28;;;16.45;73.03
51876;BME280;34054;52.100;5.116;2022-07-04T00:04:13;101848.44;;;16.48;73.09
51876;BME280;34054;52.100;5.116;2022-07-04T00:04:45;101849.50;;;16.52;73.02
51876;BME280;34054;52.100;5.116;2022-07-04T00:05:17;101841.03;;;16.59;72.98
51876;BME280;34054;52.100;5.116;2022-07-04T00:05:50;101850.34;;;16.68;73.01
51876;BME280;34054;52.100;5.116;2022-07-04T00:06:21;101845.13;;;16.77;72.73
51876;BME280;34054;52.100;5.116;2022-07-04T00:06:53;101843.78;;;16.74;72.35
51876;BME280;34054;52.100;5.116;2022-07-04T00:07:25;101843.78;;;16.79;72.42
51876;BME280;34054;52.100;5.116;2022-07-04T00:07:57;101854.22;;;16.88;72.29
51876;BME280;34054;52.100;5.116;2022-07-04T00:08:29;101850.09;;;16.95;72.03
51876;BME280;34054;52.100;5.116;2022-07-04T00:09:02;101839.94;;;17.01;71.85
51876;BME280;34054;52.100;5.116;2022-07-04T00:09:34;101847.09;;;16.97;71.56
51876;BME280;34054;52.100;5.116;2022-07-04T00:10:07;101850.38;;;16.94;71.82
51876;BME280;34054;52.100;5.116;2022-07-04T00:10:40;101848.72;;;17.03;71.75
51876;BME280;34054;52.100;5.116;2022-07-04T00:11:12;101841.31;;;17.09;71.65
51876;BME280;34054;52.100;5.116;2022-07-04T00:11:44;101835.53;;;17.10;71.38
51876;BME280;34054;52.100;5.116;2022-07-04T00:12:16;101838.00;;;17.12;71.11
51876;BME280;34054;52.100;5.116;2022-07-04T00:12:48;101841.03;;;17.16;71.07
51876;BME280;34054;52.100;5.116;2022-07-04T00:13:21;101842.69;;;17.22;71.00
51876;BME280;34054;52.100;5.116;2022-07-04T00:13:53;101842.09;;;17.25;70.90
51876;BME280;34054;52.100;5.116;2022-07-04T00:14:25;101838.81;;;17.28;71.02
51876;BME280;34054;52.100;5.116;2022-07-04T00:14:56;101841.53;;;17.33;70.88
51876;BME280;34054;52.100;5.116;2022-07-04T00:15:29;101831.41;;;17.23;70.65
51876;BME280;34054;52.100;5.116;2022-07-04T00:16:00;101834.44;;;17.22;70.66
51876;BME280;34054;52.100;5.116;2022-07-04T00:16:32;101836.88;;;17.29;70.68
51876;BME280;34054;52.100;5.116;2022-07-04T00:17:06;101840.72;;;17.33;70.72
51876;BME280;34054;52.100;5.116;2022-07-04T00:17:37;101835.50;;;17.36;70.83
51876;BME280;34054;52.100;5.116;2022-07-04T00:18:10;101839.59;;;17.44;70.67
51876;BME280;34054;52.100;5.116;2022-07-04T00:18:43;101841.50;;;17.49;70.39
51876;BME280;34054;52.100;5.116;2022-07-04T00:19:14;101842.63;;;17.48;70.49
51876;BME280;34054;52.100;5.116;2022-07-04T00:19:46;101839.28;;;17.51;70.34
51876;BME280;34054;52.100;5.116;2022-07-04T00:20:18;101840.94;;;17.52;70.33
51876;BME280;34054;52.100;5.116;2022-07-04T00:20:50;101840.94;;;17.52;70.12
51876;BME280;34054;52.100;5.116;2022-07-04T00:21:24;101838.75;;;17.54;70.30
51876;BME280;34054;52.100;5.116;2022-07-04T00:21:56;101840.38;;;17.55;70.05
51876;BME280;34054;52.100;5.116;2022-07-04T00:22:28;101835.44;;;17.57;70.10
51876;BME280;34054;52.100;5.116;2022-07-04T00:22:59;101836.53;;;17.56;70.08
51876;BME280;34054;52.100;5.116;2022-07-04T00:23:31;101841.72;;;17.63;69.48
51876;BME280;34054;52.100;5.116;2022-07-04T00:24:04;101849.13;;;17.67;69.50
51876;BME280;34054;52.100;5.116;2022-07-04T00:24:36;101844.19;;;17.69;68.95
51876;BME280;34054;52.100;5.116;2022-07-04T00:25:08;101842.81;;;17.67;68.92
51876;BME280;34054;52.100;5.116;2022-07-04T00:25:41;101838.41;;;17.66;68.95
51876;BME280;34054;52.100;5.116;2022-07-04T00:26:12;101835.97;;;17.64;68.84
51876;BME280;34054;52.100;5.116;2022-07-04T00:26:44;101837.63;;;17.65;68.82
51876;BME280;34054;52.100;5.116;2022-07-04T00:27:17;101831.56;;;17.63;69.20
51876;BME280;34054;52.100;5.116;2022-07-04T00:27:48;101840.06;;;17.67;69.06
51876;BME280;34054;52.100;5.116;2022-07-04T00:28:20;101833.72;;;17.66;68.75
51876;BME280;34054;52.100;5.116;2022-07-04T00:28:51;101833.72;;;17.66;68.61
51876;BME280;34054;52.100;5.116;2022-07-04T00:29:24;101833.47;;;17.63;68.57
51876;BME280;34054;52.100;5.116;2022-07-04T00:29:56;101826.66;;;17.55;68.22
51876;BME280;34054;52.100;5.116;2022-07-04T00:30:28;101831.56;;;17.58;68.40
51876;BME280;34054;52.100;5.116;2022-07-04T00:31:00;101835.72;;;17.50;68.76
51876;BME280;34054;52.100;5.116;2022-07-04T00:31:32;101830.81;;;17.42;68.78
51876;BME280;34054;52.100;5.116;2022-07-04T00:32:04;101831.38;;;17.39;69.06
51876;BME280;34054;52.100;5.116;2022-07-04T00:32:37;101828.63;;;17.39;69.18
51876;BME280;34054;52.100;5.116;2022-07-04T00:33:12;101829.97;;;17.41;69.15
51876;BME280;34054;52.100;5.116;2022-07-04T00:33:45;101827.28;;;17.31;69.13
51876;BME280;34054;52.100;5.116;2022-07-04T00:34:17;101829.75;;;17.22;69.57
51876;BME280;34054;52.100;5.116;2022-07-04T00:34:48;101824.56;;;17.16;69.80
51876;BME280;34054;52.100;5.116;2022-07-04T00:35:20;101828.38;;;17.15;70.01
51876;BME280;34054;52.100;5.116;2022-07-04T00:35:52;101827.84;;;17.18;70.09
51876;BME280;34054;52.100;5.116;2022-07-04T00:36:24;101834.16;;;17.23;69.94
51876;BME280;34054;52.100;5.116;2022-07-04T00:36:55;101826.22;;;17.22;70.15
51876;BME280;34054;52.100;5.116;2022-07-04T00:37:28;101831.13;;;17.25;69.90
51876;BME280;34054;52.100;5.116;2022-07-04T00:38:00;101833.06;;;17.24;70.01
51876;BME280;34054;52.100;5.116;2022-07-04T00:38:31;101826.22;;;17.22;69.84
51876;BME280;34054;52.100;5.116;2022-07-04T00:39:04;101828.41;;;17.20;69.97
51876;BME280;34054;52.100;5.116;2022-07-04T00:39:35;101832.53;;;17.17;69.93
51876;BME280;34054;52.100;5.116;2022-07-04T00:40:08;101825.69;;;16.99;70.25
51876;BME280;34054;52.100;5.116;2022-07-04T00:40:41;101824.03;;;16.88;70.75
51876;BME280;34054;52.100;5.116;2022-07-04T00:41:13;101821.81;;;16.85;70.90
51876;BME280;34054;52.100;5.116;2022-07-04T00:41:44;101823.47;;;16.80;71.36
51876;BME280;34054;52.100;5.116;2022-07-04T00:42:17;101828.69;;;16.77;71.46
51876;BME280;34054;52.100;5.116;2022-07-04T00:42:48;101830.63;;;16.71;71.74
51876;BME280;34054;52.100;5.116;2022-07-04T00:43:21;101826.22;;;16.65;71.89
51876;BME280;34054;52.100;5.116;2022-07-04T00:44:02;101830.59;;;16.66;71.97
51876;BME280;34054;52.100;5.116;2022-07-04T00:44:35;101827.31;;;16.64;71.92
51876;BME280;34054;52.100;5.116;2022-07-04T00:45:08;101827.56;;;16.68;72.20
51876;BME280;34054;52.100;5.116;2022-07-04T00:45:41;101828.97;;;16.70;72.25
51876;BME280;34054;52.100;5.116;2022-07-04T00:46:13;101825.13;;;16.76;71.75
51876;BME280;34054;52.100;5.116;2022-07-04T00:46:46;101824.84;;;16.62;72.07
51876;BME280;34054;52.100;5.116;2022-07-04T00:47:19;101820.47;;;16.56;72.35
51876;BME280;34054;52.100;5.116;2022-07-04T00:47:50;101821.56;;;16.66;72.40
51876;BME280;34054;52.100;5.116;2022-07-04T00:48:23;101820.47;;;16.72;72.19
51876;BME280;34054;52.100;5.116;2022-07-04T00:48:56;101827.88;;;16.71;72.11
51876;BME280;34054;52.100;5.116;2022-07-04T00:49:28;101818.53;;;16.72;72.02
51876;BME280;34054;52.100;5.116;2022-07-04T00:50:00;101824.84;;;16.78;71.83
51876;BME280;34054;52.100;5.116;2022-07-04T00:50:33;101811.13;;;16.78;72.10
51876;BME280;34054;52.100;5.116;2022-07-04T00:51:04;101811.66;;;16.85;71.75
51876;BME280;34054;52.100;5.116;2022-07-04T00:51:37;101818.53;;;16.88;71.63
51876;BME280;34054;52.100;5.116;2022-07-04T00:52:12;101814.97;;;16.82;71.76
51876;BME280;34054;52.100;5.116;2022-07-04T00:52:45;101808.13;;;16.79;71.96
51876;BME280;34054;52.100;5.116;2022-07-04T00:53:18;101815.25;;;16.86;72.06
51876;BME280;34054;52.100;5.116;2022-07-04T00:53:54;101819.63;;;16.92;71.76
51876;BME280;34054;52.100;5.116;2022-07-04T00:54:28;101810.03;;;16.94;71.36
51876;BME280;34054;52.100;5.116;2022-07-04T00:55:01;101816.38;;;16.95;71.10
51876;BME280;34054;52.100;5.116;2022-07-04T00:55:33;101814.69;;;16.99;71.21
51876;BME280;34054;52.100;5.116;2022-07-04T00:56:05;101815.25;;;17.01;71.18
51876;BME280;34054;52.100;5.116;2022-07-04T00:56:38;101814.44;;;16.95;70.89
51876;BME280;34054;52.100;5.116;2022-07-04T00:57:12;101822.38;;;16.92;71.05
51876;BME280;34054;52.100;5.116;2022-07-04T00:57:44;101814.72;;;16.94;71.15
51876;BME280;34054;52.100;5.116;2022-07-04T00:58:19;101812.50;;;17.01;71.18
51876;BME280;34054;52.100;5.116;2022-07-04T00:58:53;101813.31;;;17.02;70.95
51876;BME280;34054;52.100;5.116;2022-07-04T00:59:25;101813.31;;;17.02;70.85
51876;BME280;34054;52.100;5.116;2022-07-04T00:59:56;101810.88;;;17.05;70.89
51876;BME280;34054;52.100;5.116;2022-07-04T01:00:29;101813.88;;;17.09;70.32
51876;BME280;34054;52.100;5.116;2022-07-04T01:01:01;101805.09;;;17.07;70.67
51876;BME280;34054;52.100;5.116;2022-07-04T01:01:34;101819.63;;;17.07;70.71
51876;BME280;34054;52.100;5.116;2022-07-04T01:02:06;101810.84;;;17.00;70.23
51876;BME280;34054;52.100;5.116;2022-07-04T01:02:39;101808.09;;;16.85;70.75
51876;BME280;34054;52.100;5.116;2022-07-04T01:03:11;101810.28;;;16.83;71.00
51876;BME280;34054;52.100;5.116;2022-07-04T01:03:44;101815.78;;;16.83;71.29
51876;BME280;34054;52.100;5.116;2022-07-04T01:04:16;101819.34;;;16.88;71.25
51876;BME280;34054;52.100;5.116;2022-07-04T01:04:48;101810.88;;;16.95;70.78
51876;BME280;34054;52.100;5.116;2022-07-04T01:05:21;101812.50;;;17.01;71.00
51876;BME280;34054;52.100;5.116;2022-07-04T01:05:52;101808.66;;;17.02;71.13
51876;BME280;34054;52.100;5.116;2022-07-04T01:06:24;101805.09;;;17.02;70.88
51876;BME280;34054;52.100;5.116;2022-07-04T01:06:57;101815.53;;;17.05;71.01
51876;BME280;34054;52.100;5.116;2022-07-04T01:07:28;101816.63;;;17.09;70.77
51876;BME280;34054;52.100;5.116;2022-07-04T01:08:01;101810.59;;;17.07;70.30
51876;BME280;34054;52.100;5.116;2022-07-04T01:08:33;101813.88;;;17.09;70.28
51876;BME280;34054;52.100;5.116;2022-07-04T01:09:06;101800.41;;;17.07;70.30
51876;BME280;34054;52.100;5.116;2022-07-04T01:09:37;101806.16;;;17.11;70.25
51876;BME280;34054;52.100;5.116;2022-07-04T01:10:10;101813.03;;;17.14;70.49
51876;BME280;34054;52.100;5.116;2022-07-04T01:10:42;101802.59;;;17.16;70.59
51876;BME280;34054;52.100;5.116;2022-07-04T01:11:15;101800.16;;;17.09;70.24
51876;BME280;34054;52.100;5.116;2022-07-04T01:11:49;101799.88;;;17.00;70.37
51876;BME280;34054;52.100;5.116;2022-07-04T01:12:25;101794.13;;;16.97;70.50
51876;BME280;34054;52.100;5.116;2022-07-04T01:12:58;101794.94;;;17.02;70.67
51876;BME280;34054;52.100;5.116;2022-07-04T01:13:30;101794.94;;;17.07;70.86
51876;BME280;34054;52.100;5.116;2022-07-04T01:14:01;101797.66;;;17.07;70.95
51876;BME280;34054;52.100;5.116;2022-07-04T01:14:37;101795.22;;;17.06;71.13
51876;BME280;34054;52.100;5.116;2022-07-04T01:15:10;101802.31;;;17.12;71.06
51876;BME280;34054;52.100;5.116;2022-07-04T01:15:41;101801.53;;;17.11;71.11
51876;BME280;34054;52.100;5.116;2022-07-04T01:16:14;101798.50;;;17.18;70.92
51876;BME280;34054;52.100;5.116;2022-07-04T01:16:46;101803.16;;;17.23;70.96
51876;BME280;34054;52.100;5.116;2022-07-04T01:17:17;101804.22;;;17.27;70.76
51876;BME280;34054;52.100;5.116;2022-07-04T01:17:49;101808.31;;;17.30;70.54
51876;BME280;34054;52.100;5.116;2022-07-04T01:18:21;101807.22;;;17.36;70.54
51876;BME280;34054;52.100;5.116;2022-07-04T01:18:55;101801.16;;;17.39;70.28
51876;BME280;34054;52.100;5.116;2022-07-04T01:19:26;101809.41;;;17.44;70.03
51876;BME280;34054;52.100;5.116;2022-07-04T01:19:59;101808.00;;;17.47;69.62
51876;BME280;34054;52.100;5.116;2022-07-04T01:20:36;101809.09;;;17.51;69.12
51876;BME280;34054;52.100;5.116;2022-07-04T01:21:08;101812.91;;;17.50;69.11
51876;BME280;34054;52.100;5.116;2022-07-04T01:21:40;101803.88;;;17.49;68.99
51876;BME280;34054;52.100;5.116;2022-07-04T01:22:12;101806.91;;;17.42;69.25
51876;BME280;34054;52.100;5.116;2022-07-04T01:22:44;101806.09;;;17.42;69.50
51876;BME280;34054;52.100;5.116;2022-07-04T01:23:17;101798.41;;;17.44;69.40
51876;BME280;34054;52.100;5.116;2022-07-04T01:23:49;101804.47;;;17.36;69.10
51876;BME280;34054;52.100;5.116;2022-07-04T01:24:20;101808.09;;;17.21;69.46
51876;BME280;34054;52.100;5.116;2022-07-04T01:24:53;101803.69;;;17.20;69.89
51876;BME280;34054;52.100;5.116;2022-07-04T01:25:24;101805.59;;;17.19;69.89
51876;BME280;34054;52.100;5.116;2022-07-04T01:25:56;101804.78;;;17.19;69.92
51876;BME280;34054;52.100;5.116;2022-07-04T01:26:30;101808.09;;;17.16;70.15
51876;BME280;34054;52.100;5.116;2022-07-04T01:27:01;101813.03;;;17.14;70.01
51876;BME280;34054;52.100;5.116;2022-07-04T01:27:33;101805.09;;;17.02;70.37
51876;BME280;34054;52.100;5.116;2022-07-04T01:28:06;101806.22;;;17.01;70.47
51876;BME280;34054;52.100;5.116;2022-07-04T01:28:38;101804.28;;;17.01;70.45
51876;BME280;34054;52.100;5.116;2022-07-04T01:29:10;101810.31;;;17.03;70.45
51876;BME280;34054;52.100;5.116;2022-07-04T01:29:42;101807.28;;;17.05;70.67
51876;BME280;34054;52.100;5.116;2022-07-04T01:30:14;101804.28;;;16.96;70.75
51876;BME280;34054;52.100;5.116;2022-07-04T01:30:45;101808.13;;;17.00;70.79
51876;BME280;34054;52.100;5.116;2022-07-04T01:31:18;101806.47;;;16.94;70.75
51876;BME280;34054;52.100;5.116;2022-07-04T01:31:49;101802.06;;;16.88;70.89
51876;BME280;34054;52.100;5.116;2022-07-04T01:32:22;101814.97;;;16.77;71.17
51876;BME280;34054;52.100;5.116;2022-07-04T01:32:55;101807.84;;;16.81;71.33
51876;BME280;34054;52.100;5.116;2022-07-04T01:33:27;101805.38;;;16.74;71.26
51876;BME280;34054;52.100;5.116;2022-07-04T01:33:58;101798.50;;;16.82;71.22
51876;BME280;34054;52.100;5.116;2022-07-04T01:34:31;101799.59;;;16.91;71.17
51876;BME280;34054;52.100;5.116;2022-07-04T01:35:02;101798.50;;;16.92;71.15
51876;BME280;34054;52.100;5.116;2022-07-04T01:35:36;101802.06;;;16.98;70.96
51876;BME280;34054;52.100;5.116;2022-07-04T01:36:08;101799.34;;;17.03;70.93
51876;BME280;34054;52.100;5.116;2022-07-04T01:36:40;101808.91;;;17.11;70.75
51876;BME280;34054;52.100;5.116;2022-07-04T01:37:12;101799.84;;;17.16;70.47
51876;BME280;34054;52.100;5.116;2022-07-04T01:37:45;101805.06;;;17.17;70.53
51876;BME280;34054;52.100;5.116;2022-07-04T01:38:16;101804.25;;;17.22;70.60
51876;BME280;34054;52.100;5.116;2022-07-04T01:38:48;101805.56;;;17.30;69.93
51876;BME280;34054;52.100;5.116;2022-07-04T01:39:20;101803.38;;;17.32;69.41
51876;BME280;34054;52.100;5.116;2022-07-04T01:39:52;101804.22;;;17.27;69.21
51876;BME280;34054;52.100;5.116;2022-07-04T01:40:23;101804.50;;;17.25;69.23
51876;BME280;34054;52.100;5.116;2022-07-04T01:40:56;101805.59;;;17.24;69.32
51876;BME280;34054;52.100;5.116;2022-07-04T01:41:33;101793.00;;;17.18;69.13
51876;BME280;34054;52.100;5.116;2022-07-04T01:42:05;101798.19;;;17.15;69.23
51876;BME280;34054;52.100;5.116;2022-07-04T01:42:38;101793.28;;;17.06;69.47
51876;BME280;34054;52.100;5.116;2022-07-04T01:43:10;101794.66;;;17.09;69.34
51876;BME280;34054;52.100;5.116;2022-07-04T01:43:41;101799.06;;;17.10;69.46
51876;BME280;34054;52.100;5.116;2022-07-04T01:44:14;101794.09;;;17.17;69.53
51876;BME280;34054;52.100;5.116;2022-07-04T01:44:45;101799.84;;;17.21;69.46
51876;BME280;34054;52.100;5.116;2022-07-04T01:45:17;101797.09;;;17.26;69.43
51876;BME280;34054;52.100;5.116;2022-07-04T01:45:49;101797.63;;;17.28;69.56
51876;BME280;34054;52.100;5.116;2022-07-04T01:46:22;101789.91;;;17.35;69.48
51876;BME280;34054;52.100;5.116;2022-07-04T01:46:53;101795.94;;;17.42;69.24
51876;BME280;34054;52.100;5.116;2022-07-04T01:47:26;101789.34;;;17.43;69.19
51876;BME280;34054;52.100;5.116;2022-07-04T01:47:58;101792.41;;;17.32;68.93
51876;BME280;34054;52.100;5.116;2022-07-04T01:48:30;101793.25;;;17.27;69.11
51876;BME280;34054;52.100;5.116;2022-07-04T01:49:03;101799.84;;;17.21;69.19
51876;BME280;34054;52.100;5.116;2022-07-04T01:49:34;101793.81;;;17.19;69.19
51876;BME280;34054;52.100;5.116;2022-07-04T01:50:08;101796.00;;;17.17;69.39
51876;BME280;34054;52.100;5.116;2022-07-04T01:50:44;101794.91;;;17.23;69.53
51876;BME280;34054;52.100;5.116;2022-07-04T01:51:16;101796.28;;;17.25;69.08
51876;BME280;34054;52.100;5.116;2022-07-04T01:51:49;101798.47;;;17.23;68.99
51876;BME280;34054;52.100;5.116;2022-07-04T01:52:22;101783.91;;;17.28;68.83
51876;BME280;34054;52.100;5.116;2022-07-04T01:52:53;101793.25;;;17.17;69.03
51876;BME280;34054;52.100;5.116;2022-07-04T01:53:26;101791.66;;;17.05;69.64
51876;BME280;34054;52.100;5.116;2022-07-04T01:53:57;101792.47;;;17.06;69.87
51876;BME280;34054;52.100;5.116;2022-07-04T01:54:29;101789.72;;;17.06;69.99
51876;BME280;34054;52.100;5.116;2022-07-04T01:55:01;101791.91;;;17.04;69.84
51876;BME280;34054;52.100;5.116;2022-07-04T01:55:33;101798.22;;;16.99;70.26
51876;BME280;34054;52.100;5.116;2022-07-04T01:56:05;101791.13;;;16.93;70.50
51876;BME280;34054;52.100;5.116;2022-07-04T01:56:38;101790.25;;;16.87;70.82
51876;BME280;34054;52.100;5.116;2022-07-04T01:57:09;101783.13;;;16.86;71.01
51876;BME280;34054;52.100;5.116;2022-07-04T01:57:41;101792.22;;;16.76;71.71
51876;BME280;34054;52.100;5.116;2022-07-04T01:58:13;101796.03;;;16.75;71.83
51876;BME280;34054;52.100;5.116;2022-07-04T01:58:45;101788.34;;;16.72;71.93
51876;BME280;34054;52.100;5.116;2022-07-04T01:59:16;101790.31;;;16.67;72.37
51876;BME280;34054;52.100;5.116;2022-07-04T01:59:49;101790.28;;;16.72;72.49
51876;BME280;34054;52.100;5.116;2022-07-04T02:00:39;101796.31;;;16.74;72.21
51876;BME280;34054;52.100;5.116;2022-07-04T02:01:29;101794.13;;;16.66;72.63
51876;BME280;34054;52.100;5.116;2022-07-04T02:02:00;101801.25;;;16.56;73.07
51876;BME280;34054;52.100;5.116;2022-07-04T02:02:32;101791.66;;;16.43;73.76
51876;BME280;34054;52.100;5.116;2022-07-04T02:03:04;101793.28;;;16.39;74.20
51876;BME280;34054;52.100;5.116;2022-07-04T02:03:36;101804.25;;;16.34;74.52
51876;BME280;34054;52.100;5.116;2022-07-04T02:04:09;101791.38;;;16.24;74.85
51876;BME280;34054;52.100;5.116;2022-07-04T02:04:40;101794.91;;;16.14;75.48
51876;BME280;34054;52.100;5.116;2022-07-04T02:05:13;101793.53;;;16.17;75.52
51876;BME280;34054;52.100;5.116;2022-07-04T02:05:47;101791.06;;;16.15;75.72
51876;BME280;34054;52.100;5.116;2022-07-04T02:06:20;101790.50;;;16.13;76.14
51876;BME280;34054;52.100;5.116;2022-07-04T02:06:51;101789.97;;;16.22;76.10
51876;BME280;34054;52.100;5.116;2022-07-04T02:07:23;101791.34;;;16.19;76.05
51876;BME280;34054;52.100;5.116;2022-07-04T02:07:55;101796.56;;;16.26;76.01
51876;BME280;34054;52.100;5.116;2022-07-04T02:08:27;101794.94;;;16.35;75.97
51876;BME280;34054;52.100;5.116;2022-07-04T02:09:19;101798.50;;;16.30;76.18
51876;BME280;34054;52.100;5.116;2022-07-04T02:09:51;101794.94;;;16.35;76.10
51876;BME280;34054;52.100;5.116;2022-07-04T02:10:23;101797.13;;;16.38;75.97
51876;BME280;34054;52.100;5.116;2022-07-04T02:10:55;101795.50;;;16.37;76.12
51876;BME280;34054;52.100;5.116;2022-07-04T02:11:27;101792.75;;;16.32;76.45
51876;BME280;34054;52.100;5.116;2022-07-04T02:11:59;101798.22;;;16.27;76.64
51876;BME280;34054;52.100;5.116;2022-07-04T02:12:49;101798.72;;;15.98;77.91
51876;BME280;34054;52.100;5.116;2022-07-04T02:13:32;101792.94;;;15.99;78.22
51876;BME280;34054;52.100;5.116;2022-07-04T02:14:04;101794.34;;;16.07;78.26
51876;BME280;34054;52.100;5.116;2022-07-04T02:14:35;101795.72;;;16.05;78.09
51876;BME280;34054;52.100;5.116;2022-07-04T02:15:08;101797.63;;;16.04;78.32
51876;BME280;34054;52.100;5.116;2022-07-04T02:15:41;101793.78;;;16.00;78.51
51876;BME280;34054;52.100;5.116;2022-07-04T02:16:14;101793.78;;;15.95;78.80
51876;BME280;34054;52.100;5.116;2022-07-04T02:16:45;101793.47;;;15.86;79.29
51876;BME280;34054;52.100;5.116;2022-07-04T02:17:17;101791.81;;;15.85;79.40
51876;BME280;34054;52.100;5.116;2022-07-04T02:17:49;101790.22;;;15.94;79.45
51876;BME280;34054;52.100;5.116;2022-07-04T02:18:21;101794.88;;;15.99;79.14
51876;BME280;34054;52.100;5.116;2022-07-04T02:18:52;101794.03;;;15.93;79.58
51876;BME280;34054;52.100;5.116;2022-07-04T02:19:25;101793.50;;;15.96;79.42
51876;BME280;34054;52.100;5.116;2022-07-04T02:19:56;101792.66;;;15.96;79.52
51876;BME280;34054;52.100;5.116;2022-07-04T02:20:28;101794.06;;;16.04;79.43
51876;BME280;34054;52.100;5.116;2022-07-04T02:21:03;101787.72;;;15.88;79.73
51876;BME280;34054;52.100;5.116;2022-07-04T02:21:35;101789.38;;;15.89;80.07
51876;BME280;34054;52.100;5.116;2022-07-04T02:22:06;101796.53;;;15.95;80.02
51876;BME280;34054;52.100;5.116;2022-07-04T02:22:39;101789.41;;;16.04;79.62
51876;BME280;34054;52.100;5.116;2022-07-04T02:23:11;101790.22;;;15.99;79.55
51876;BME280;34054;52.100;5.116;2022-07-04T02:23:43;101791.59;;;16.02;79.68
51876;BME280;34054;52.100;5.116;2022-07-04T02:24:14;101791.59;;;16.07;79.63
51876;BME280;34054;52.100;5.116;2022-07-04T02:24:47;101789.44;;;16.14;79.48
51876;BME280;34054;52.100;5.116;2022-07-04T02:25:19;101796.03;;;16.24;79.18
51876;BME280;34054;52.100;5.116;2022-07-04T02:25:50;101788.63;;;16.29;78.90
51876;BME280;34054;52.100;5.116;2022-07-04T02:26:23;101786.97;;;16.33;78.75
51876;BME280;34054;52.100;5.116;2022-07-04T02:26:54;101777.66;;;16.29;78.45
51876;BME280;34054;52.100;5.116;2022-07-04T02:27:26;101780.41;;;16.35;78.47
51876;BME280;34054;52.100;5.116;2022-07-04T02:27:58;101773.28;;;16.33;78.45
51876;BME280;34054;52.100;5.116;2022-07-04T02:28:30;101786.44;;;16.37;78.46
51876;BME280;34054;52.100;5.116;2022-07-04T02:29:02;101786.16;;;16.33;78.83
51876;BME280;34054;52.100;5.116;2022-07-04T02:29:34;101784.53;;;16.37;78.76
51876;BME280;34054;52.100;5.116;2022-07-04T02:30:07;101778.50;;;16.40;78.61
51876;BME280;34054;52.100;5.116;2022-07-04T02:30:40;101767.53;;;16.40;78.62
51876;BME280;34054;52.100;5.116;2022-07-04T02:31:12;101778.22;;;16.52;78.51
51876;BME280;34054;52.100;5.116;2022-07-04T02:31:43;101778.22;;;16.62;78.22
51876;BME280;34054;52.100;5.116;2022-07-04T02:32:16;101761.50;;;16.54;77.98
51876;BME280;34054;52.100;5.116;2022-07-04T02:32:47;101754.66;;;16.56;77.93
51876;BME280;34054;52.100;5.116;2022-07-04T02:33:20;101781.78;;;16.68;77.81
51876;BME280;34054;52.100;5.116;2022-07-04T02:33:52;101780.41;;;16.71;77.41
51876;BME280;34054;52.100;5.116;2022-07-04T02:34:23;101784.53;;;16.68;77.37
51876;BME280;34054;52.100;5.116;2022-07-04T02:34:56;101779.03;;;16.68;77.43
51876;BME280;34054;52.100;5.116;2022-07-04T02:35:27;101782.88;;;16.72;77.48
51876;BME280;34054;52.100;5.116;2022-07-04T02:36:00;101783.16;;;16.71;77.33
51876;BME280;34054;52.100;5.116;2022-07-04T02:36:33;101779.03;;;16.68;77.41
51876;BME280;34054;52.100;5.116;2022-07-04T02:37:05;101783.44;;;16.54;77.83
51876;BME280;34054;52.100;5.116;2022-07-04T02:37:38;101787.56;;;16.41;78.43
51876;BME280;34054;52.100;5.116;2022-07-04T02:38:09;101785.91;;;16.45;78.56
51876;BME280;34054;52.100;5.116;2022-07-04T02:38:41;101778.50;;;16.45;78.64
51876;BME280;34054;52.100;5.116;2022-07-04T02:39:13;101781.53;;;16.49;78.71
51876;BME280;34054;52.100;5.116;2022-07-04T02:39:45;101780.97;;;16.57;78.44
51876;BME280;34054;52.100;5.116;2022-07-04T02:40:17;101777.13;;;16.63;78.39
51876;BME280;34054;52.100;5.116;2022-07-04T02:40:49;101776.28;;;16.73;78.17
51876;BME280;34054;52.100;5.116;2022-07-04T02:41:21;101783.97;;;16.76;77.82
51876;BME280;34054;52.100;5.116;2022-07-04T02:41:53;101776.28;;;16.73;77.81
51876;BME280;34054;52.100;5.116;2022-07-04T02:42:28;101778.22;;;16.73;77.59
51876;BME280;34054;52.100;5.116;2022-07-04T02:43:01;101784.53;;;16.58;78.01
51876;BME280;34054;52.100;5.116;2022-07-04T02:43:32;101788.34;;;16.46;78.34
51876;BME280;34054;52.100;5.116;2022-07-04T02:44:05;101785.91;;;16.40;78.79
51876;BME280;34054;52.100;5.116;2022-07-04T02:44:36;101789.19;;;16.31;79.03
51876;BME280;34054;52.100;5.116;2022-07-04T02:45:09;101792.19;;;16.30;79.39
51876;BME280;34054;52.100;5.116;2022-07-04T02:45:41;101788.91;;;16.17;79.88
51876;BME280;34054;52.100;5.116;2022-07-04T02:46:12;101782.03;;;16.20;79.93
51876;BME280;34054;52.100;5.116;2022-07-04T02:46:45;101782.84;;;16.15;79.98
51876;BME280;34054;52.100;5.116;2022-07-04T02:47:17;101789.97;;;16.22;80.16
51876;BME280;34054;52.100;5.116;2022-07-04T02:47:48;101783.13;;;16.19;80.04
51876;BME280;34054;52.100;5.116;2022-07-04T02:48:21;101787.81;;;16.29;79.98
51876;BME280;34054;52.100;5.116;2022-07-04T02:48:52;101791.38;;;16.29;79.90
51876;BME280;34054;52.100;5.116;2022-07-04T02:49:24;101791.09;;;16.31;79.96
51876;BME280;34054;52.100;5.116;2022-07-04T02:49:56;101776.31;;;16.27;79.79
51876;BME280;34054;52.100;5.116;2022-07-04T02:50:28;101785.06;;;16.34;79.51